createdAt,value
2019-05-07T00:03:05.719Z,2.80
2019-05-07T00:07:10.003Z,2.77
2019-05-07T00:11:14.375Z,2.53
2019-05-07T00:15:18.570Z,2.60
2019-05-07T00:19:23.172Z,2.40
2019-05-07T00:23:27.536Z,2.07
2019-05-07T00:27:32.148Z,2.17
2019-05-07T00:31:36.482Z,2.60
2019-05-07T00:35:47.436Z,2.10
2019-05-07T00:40:13.511Z,2.50
2019-05-07T00:44:18.192Z,2.27
2019-05-07T00:48:23.592Z,2.03
2019-05-07T00:52:27.933Z,2.30
2019-05-07T00:56:33.209Z,2.60
2019-05-07T01:00:38.192Z,2.30
2019-05-07T01:04:42.705Z,2.23
2019-05-07T01:08:47.238Z,2.27
2019-05-07T01:12:53.136Z,2.70
2019-05-07T01:16:57.649Z,2.30
2019-05-07T01:21:02.461Z,2.50
2019-05-07T01:25:07.263Z,2.47
2019-05-07T01:29:12.902Z,2.80
2019-05-07T01:33:30.257Z,2.20
2019-05-07T01:37:34.498Z,2.40
2019-05-07T01:41:38.763Z,2.40
2019-05-07T01:45:49.421Z,2.50
2019-05-07T01:49:54.868Z,2.53
2019-05-07T01:53:58.300Z,2.40
2019-05-07T01:58:04.729Z,2.33
2019-05-07T02:02:16.879Z,2.40
2019-05-07T02:06:32.775Z,2.37
2019-05-07T02:10:59.028Z,2.20
2019-05-07T02:15:03.512Z,2.10
2019-05-07T02:19:08.087Z,2.60
2019-05-07T02:23:12.924Z,2.20
2019-05-07T02:27:17.421Z,2.27
2019-05-07T02:31:23.285Z,2.50
2019-05-07T02:35:27.736Z,2.40
2019-05-07T02:39:39.751Z,1.77
2019-05-07T02:43:43.966Z,2.30
2019-05-07T02:47:48.417Z,2.30
2019-05-07T02:51:58.344Z,2.00
2019-05-07T02:56:03.556Z,2.37
2019-05-07T03:00:08.512Z,2.60
2019-05-07T03:04:13.060Z,2.30
2019-05-07T03:08:17.538Z,2.27
2019-05-07T03:12:23.744Z,2.30
2019-05-07T03:16:39.651Z,2.23
2019-05-07T03:20:47.463Z,2.40
2019-05-07T03:24:56.749Z,2.10
2019-05-07T03:29:04.732Z,2.43
2019-05-07T03:33:36.674Z,2.80
2019-05-07T03:37:40.252Z,2.33
2019-05-07T03:41:44.997Z,2.60
2019-05-07T03:46:13.757Z,2.30
2019-05-07T03:50:16.971Z,2.30
2019-05-07T03:54:23.827Z,2.63
2019-05-07T03:58:27.620Z,2.43
2019-05-07T04:02:33.229Z,2.67
2019-05-07T04:06:37.572Z,2.50
2019-05-07T04:10:44.221Z,2.60
2019-05-07T04:14:48.098Z,2.80
2019-05-07T04:18:53.079Z,2.30
2019-05-07T04:22:57.345Z,2.67
2019-05-07T04:27:07.667Z,2.63
2019-05-07T04:31:14.160Z,2.60
2019-05-07T04:35:24.485Z,2.37
2019-05-07T04:39:28.752Z,2.70
2019-05-07T04:43:33.799Z,2.97
2019-05-07T04:47:44.319Z,3.00
2019-05-07T04:51:53.109Z,2.77
2019-05-07T04:55:57.317Z,2.50
2019-05-07T05:00:03.443Z,2.70
2019-05-07T05:04:24.373Z,2.90
2019-05-07T05:08:14.792Z,2.77
2019-05-07T05:12:19.052Z,2.83
2019-05-07T05:16:24.308Z,2.67
2019-05-07T05:20:37.243Z,2.70
2019-05-07T05:24:44.746Z,2.07
2019-05-07T05:28:49.007Z,2.50
2019-05-07T05:32:53.259Z,2.20
2019-05-07T05:36:57.513Z,2.00
2019-05-07T05:41:02.718Z,2.13
2019-05-07T05:45:26.842Z,2.07
2019-05-07T05:49:32.178Z,2.70
2019-05-07T05:53:44.455Z,2.83
2019-05-07T05:57:56.424Z,2.17
2019-05-07T06:02:25.804Z,2.43
2019-05-07T06:07:07.901Z,2.10
2019-05-07T06:11:16.182Z,2.57
2019-05-07T06:15:27.412Z,2.40
2019-05-07T06:19:42.497Z,2.53
2019-05-07T06:23:52.802Z,2.60
2019-05-07T06:27:56.846Z,1.90
2019-05-07T06:32:04.209Z,2.07
2019-05-07T06:36:08.461Z,2.20
2019-05-07T06:40:38.199Z,2.30
2019-05-07T06:44:42.798Z,2.30
2019-05-07T06:48:47.525Z,2.50
2019-05-07T06:52:52.012Z,2.20
2019-05-07T06:56:56.612Z,2.20
2019-05-07T07:01:28.992Z,2.47
2019-05-07T07:05:51.852Z,2.60
2019-05-07T07:10:15.191Z,2.40
2019-05-07T07:14:19.657Z,4.20
2019-05-07T07:18:24.979Z,2.43
2019-05-07T07:22:29.213Z,2.23
2019-05-07T07:26:36.071Z,1.97
2019-05-07T07:30:48.019Z,1.80
2019-05-07T07:34:53.914Z,1.90
2019-05-07T07:38:58.170Z,1.97
2019-05-07T07:43:06.358Z,1.83
2019-05-07T07:47:08.760Z,1.70
2019-05-07T07:51:13.893Z,2.10
2019-05-07T07:55:22.265Z,1.90
2019-05-07T07:59:42.145Z,1.70
2019-05-07T08:03:46.428Z,1.70
2019-05-07T08:07:52.812Z,2.10
2019-05-07T08:11:56.679Z,1.77
2019-05-07T08:16:02.469Z,1.83
2019-05-07T08:20:08.329Z,1.80
2019-05-07T08:24:12.643Z,1.67
2019-05-07T08:28:18.148Z,2.10
2019-05-07T08:32:32.728Z,2.00
2019-05-07T08:36:37.106Z,2.07
2019-05-07T08:40:41.940Z,2.00
2019-05-07T08:44:52.818Z,1.80
2019-05-07T08:48:57.246Z,2.00
2019-05-07T08:53:02.798Z,1.77
2019-05-07T08:57:07.259Z,1.80
2019-05-07T09:01:11.929Z,1.83
2019-05-07T09:05:16.344Z,2.00
2019-05-07T09:09:22.260Z,1.80
2019-05-07T09:13:26.606Z,2.13
2019-05-07T09:17:31.930Z,1.90
2019-05-07T09:21:36.763Z,1.83
2019-05-07T09:25:48.345Z,2.00
2019-05-07T09:30:12.795Z,1.70
2019-05-07T09:34:18.310Z,1.93
2019-05-07T09:38:22.578Z,1.83
2019-05-07T09:42:26.941Z,1.97
2019-05-07T09:46:32.592Z,1.40
2019-05-07T09:50:36.890Z,1.40
2019-05-07T09:54:42.808Z,1.70
2019-05-07T09:58:47.475Z,1.77
2019-05-07T10:02:52.809Z,1.43
2019-05-07T10:06:57.165Z,1.60
2019-05-07T10:11:02.920Z,1.57
2019-05-07T10:15:07.840Z,2.00
2019-05-07T10:19:12.414Z,1.70
2019-05-07T10:23:23.318Z,2.00
2019-05-07T10:27:27.846Z,2.17
2019-05-07T10:31:33.325Z,1.80
2019-05-07T10:35:37.818Z,1.60
2019-05-07T10:39:43.058Z,1.83
2019-05-07T10:43:47.956Z,1.83
2019-05-07T10:48:04.691Z,1.70
2019-05-07T10:52:08.933Z,1.50
2019-05-07T10:56:13.199Z,1.67
2019-05-07T11:00:22.511Z,2.20
2019-05-07T11:04:39.276Z,1.70
2019-05-07T11:08:33.064Z,2.10
2019-05-07T11:12:38.128Z,1.57
2019-05-07T11:17:11.927Z,1.80
2019-05-07T11:21:18.262Z,1.87
2019-05-07T11:25:22.687Z,1.80
2019-05-07T11:29:27.051Z,2.00
2019-05-07T11:33:32.582Z,1.73
2019-05-07T11:37:37.070Z,1.63
2019-05-07T11:42:06.487Z,1.50
2019-05-07T11:46:22.224Z,1.57
2019-05-07T11:50:42.218Z,1.63
2019-05-07T11:54:46.685Z,1.60
2019-05-07T11:58:54.724Z,1.80
2019-05-07T12:02:56.961Z,1.90
2019-05-07T12:07:02.553Z,2.30
2019-05-07T12:11:06.994Z,1.80
2019-05-07T12:15:14.034Z,1.93
2019-05-07T12:19:18.292Z,1.67
2019-05-07T12:23:22.771Z,1.70
2019-05-07T12:27:27.144Z,1.80
2019-05-07T12:32:05.739Z,1.60
2019-05-07T12:36:12.588Z,1.53
2019-05-07T12:40:17.264Z,2.00
2019-05-07T12:44:22.208Z,1.67
2019-05-07T12:48:26.679Z,1.40
2019-05-07T12:52:37.226Z,1.70
2019-05-07T12:56:42.625Z,1.50
2019-05-07T13:01:05.964Z,1.80
2019-05-07T13:05:11.902Z,1.50
2019-05-07T13:09:16.266Z,1.77
2019-05-07T13:13:20.522Z,1.50
2019-05-07T13:17:24.769Z,1.53
2019-05-07T13:21:29.113Z,1.50
2019-05-07T13:25:33.711Z,1.60
2019-05-07T13:29:42.473Z,1.67
2019-05-07T13:33:48.719Z,1.43
2019-05-07T13:38:15.510Z,1.70
2019-05-07T13:42:44.152Z,1.63
2019-05-07T13:46:50.354Z,1.67
2019-05-07T13:50:54.777Z,1.70
2019-05-07T13:54:59.072Z,1.90
2019-05-07T13:59:05.059Z,1.97
2019-05-07T14:03:09.457Z,1.60
2019-05-07T14:07:14.181Z,2.07
2019-05-07T14:11:18.492Z,1.70
2019-05-07T14:15:23.221Z,1.70
2019-05-07T14:19:27.645Z,2.00
2019-05-07T14:23:32.502Z,1.70
2019-05-07T14:27:36.813Z,1.63
2019-05-07T14:31:42.615Z,1.50
2019-05-07T14:35:53.606Z,1.60
2019-05-07T14:39:57.849Z,1.67
2019-05-07T14:44:11.947Z,1.57
2019-05-07T14:48:16.156Z,1.60
2019-05-07T14:52:30.262Z,1.70
2019-05-07T14:56:26.578Z,1.70
2019-05-07T15:00:31.136Z,1.80
2019-05-07T15:04:35.762Z,2.00
2019-05-07T15:08:42.742Z,1.67
2019-05-07T15:12:46.659Z,1.60
2019-05-07T15:16:53.551Z,1.90
2019-05-07T15:20:57.844Z,1.70
2019-05-07T15:25:03.118Z,1.67
2019-05-07T15:29:12.090Z,1.30
2019-05-07T15:33:18.085Z,1.57
2019-05-07T15:37:22.351Z,1.80
2019-05-07T15:41:26.946Z,1.80
2019-05-07T15:45:31.185Z,1.77
2019-05-07T15:49:35.431Z,1.60
2019-05-07T15:53:51.911Z,1.43
2019-05-07T15:57:56.173Z,1.40
2019-05-07T16:02:09.540Z,1.40
2019-05-07T16:06:13.804Z,1.70
2019-05-07T16:10:18.045Z,1.30
2019-05-07T16:14:26.775Z,1.47
2019-05-07T16:18:39.381Z,1.50
2019-05-07T16:22:47.094Z,1.80
2019-05-07T16:26:52.330Z,1.60
2019-05-07T16:30:56.769Z,1.53
2019-05-07T16:35:02.675Z,1.30
2019-05-07T16:39:07.741Z,1.80
2019-05-07T16:43:12.226Z,2.00
2019-05-07T16:47:16.490Z,1.50
2019-05-07T16:51:22.290Z,1.50
2019-05-07T16:55:36.755Z,1.40
2019-05-07T16:59:44.153Z,1.40
2019-05-07T17:03:52.957Z,1.50
2019-05-07T17:08:15.249Z,1.50
2019-05-07T17:12:22.041Z,1.23
2019-05-07T17:16:26.917Z,1.70
2019-05-07T17:20:32.777Z,1.60
2019-05-07T17:24:37.556Z,1.57
2019-05-07T17:28:44.069Z,1.77
2019-05-07T17:32:48.506Z,1.73
2019-05-07T17:36:54.166Z,2.07
2019-05-07T17:41:10.766Z,1.60
2019-05-07T17:45:06.885Z,1.60
2019-05-07T17:49:11.956Z,1.40
2019-05-07T17:53:16.563Z,1.37
2019-05-07T17:57:22.811Z,1.17
2019-05-07T18:01:50.002Z,1.43
2019-05-07T18:05:54.105Z,1.50
2019-05-07T18:09:59.130Z,1.50
2019-05-07T18:14:04.821Z,1.77
2019-05-07T18:18:09.492Z,1.63
2019-05-07T18:22:13.890Z,1.70
2019-05-07T18:26:29.841Z,1.73
2019-05-07T18:30:24.392Z,1.50
2019-05-07T18:34:29.068Z,1.60
2019-05-07T18:38:33.533Z,1.87
2019-05-07T18:42:37.799Z,2.10
2019-05-07T18:46:43.459Z,1.57
2019-05-07T18:50:47.868Z,1.40
2019-05-07T18:54:52.228Z,1.60
2019-05-07T18:58:56.717Z,1.70
2019-05-07T19:03:03.115Z,2.00
2019-05-07T19:07:06.910Z,1.90
2019-05-07T19:11:12.485Z,2.10
2019-05-07T19:15:17.418Z,1.93
2019-05-07T19:19:22.269Z,1.83
2019-05-07T19:23:27.110Z,2.20
2019-05-07T19:27:32.749Z,2.23
2019-05-07T19:31:37.510Z,1.90
2019-05-07T19:35:41.990Z,1.80
2019-05-07T19:39:46.230Z,2.03
2019-05-07T19:43:52.780Z,2.23
2019-05-07T19:47:57.227Z,1.77
2019-05-07T19:52:01.825Z,2.00
2019-05-07T19:56:09.931Z,1.90
2019-05-07T20:00:14.966Z,2.57
2019-05-07T20:04:19.420Z,3.07
2019-05-07T20:08:23.985Z,2.77
2019-05-07T20:12:29.130Z,2.57
2019-05-07T20:16:33.427Z,2.70
2019-05-07T20:20:38.134Z,2.20
2019-05-07T20:24:42.753Z,2.30
2019-05-07T20:28:47.185Z,2.83
2019-05-07T20:32:52.285Z,2.20
2019-05-07T20:36:57.012Z,2.67
2019-05-07T20:41:02.176Z,2.40
2019-05-07T20:45:07.580Z,3.10
2019-05-07T20:49:13.276Z,2.63
2019-05-07T20:53:19.406Z,4.23
2019-05-07T20:57:26.807Z,3.60
2019-05-07T21:01:32.907Z,3.73
2019-05-07T21:05:37.361Z,3.80
2019-05-07T21:09:42.338Z,4.30
2019-05-07T21:13:46.812Z,4.67
2019-05-07T21:17:52.621Z,4.93
2019-05-07T21:21:57.073Z,4.43
2019-05-07T21:26:02.118Z,3.60
2019-05-07T21:30:06.889Z,4.10
2019-05-07T21:34:25.129Z,4.53
2019-05-07T21:38:36.966Z,4.20
2019-05-07T21:42:52.595Z,4.30
2019-05-07T21:47:03.905Z,3.50
2019-05-07T21:51:08.345Z,4.00
2019-05-07T21:55:22.290Z,3.80
2019-05-07T21:59:27.232Z,4.00
2019-05-07T22:03:34.986Z,3.70
2019-05-07T22:07:38.614Z,3.97
2019-05-07T22:11:43.044Z,4.30
2019-05-07T22:15:47.461Z,4.00
2019-05-07T22:19:52.477Z,3.83
2019-05-07T22:23:57.329Z,3.90
2019-05-07T22:28:04.713Z,4.20
2019-05-07T22:32:29.887Z,3.63
2019-05-07T22:36:34.180Z,3.03
2019-05-07T22:40:38.452Z,3.50
2019-05-07T22:44:43.016Z,3.60
2019-05-07T22:48:47.656Z,3.67
2019-05-07T22:52:52.556Z,3.23
2019-05-07T22:57:14.207Z,3.50
2019-05-07T23:01:18.714Z,4.17
2019-05-07T23:05:23.142Z,3.80
2019-05-07T23:09:27.327Z,3.87
2019-05-07T23:13:31.925Z,3.60
2019-05-07T23:17:36.520Z,3.40
2019-05-07T23:21:42.553Z,3.77
2019-05-07T23:25:47.101Z,3.50
2019-05-07T23:29:52.924Z,3.83
2019-05-07T23:33:57.402Z,3.50
2019-05-07T23:38:02.525Z,4.13
2019-05-07T23:42:15.089Z,3.10
2019-05-07T23:46:19.339Z,3.20
2019-05-07T23:50:23.617Z,3.40
2019-05-07T23:54:27.897Z,3.33
2019-05-07T23:58:32.733Z,3.70
